Time;durP1;ratioP1;P1;durP2;ratioP2;P2;SDS_P1;SDS_P2;PMS_P1;PMS_P2;Temp;Humidity;BMP_temperature;BMP_pressure;BME280_temperature;BME280_humidity;BME280_pressure;Samples;Min_cycle;Max_cycle;Signal;HPM_P1;HPM_P2
2023/04/28 00:00:43;;;;;;;0.17;0.17;;;-0.10;99.90;;;;;;5055702;28;20036;-74
2023/04/28 00:03:09;;;;;;;0.32;0.32;;;-0.10;99.90;;;;;;5055211;28;20087;-74
2023/04/28 00:05:35;;;;;;;0.20;0.20;;;-0.10;99.90;;;;;;5053934;28;20095;-74
2023/04/28 00:08:02;;;;;;;0.20;0.20;;;-0.10;99.90;;;;;;5055181;28;20031;-74
2023/04/28 00:10:29;;;;;;;0.20;0.20;;;0.00;99.90;;;;;;5053802;28;20032;-74
2023/04/28 00:13:00;;;;;;;0.30;0.30;;;0.10;99.90;;;;;;5055505;28;20025;-74
2023/04/28 00:15:26;;;;;;;0.20;0.20;;;0.10;99.90;;;;;;5054934;28;20120;-74
2023/04/28 00:17:52;;;;;;;0.30;0.30;;;0.10;99.90;;;;;;5055357;28;20068;-74
2023/04/28 00:20:17;;;;;;;0.20;0.20;;;0.20;99.90;;;;;;5055554;28;20025;-74
2023/04/28 00:22:43;;;;;;;0.20;0.20;;;0.20;99.90;;;;;;5055153;28;20025;-74
2023/04/28 00:25:09;;;;;;;0.20;0.20;;;0.30;99.90;;;;;;5055249;28;20029;-74
2023/04/28 00:27:35;;;;;;;0.20;0.20;;;0.40;99.90;;;;;;5053637;28;20044;-73
2023/04/28 00:30:00;;;;;;;0.20;0.20;;;0.40;99.90;;;;;;5055789;28;20025;-74
2023/04/28 00:32:26;;;;;;;0.30;0.30;;;0.40;99.90;;;;;;5055596;28;20025;-74
2023/04/28 00:34:52;;;;;;;0.22;0.22;;;0.60;99.90;;;;;;5055182;28;20024;-74
2023/04/28 00:37:20;;;;;;;0.25;0.25;;;0.60;99.90;;;;;;5054240;28;20021;-74
2023/04/28 00:39:46;;;;;;;0.10;0.10;;;0.70;99.90;;;;;;5054770;28;20021;-74
2023/04/28 00:42:15;;;;;;;0.30;0.30;;;0.80;99.90;;;;;;5054927;28;20043;-74
2023/04/28 00:44:40;;;;;;;0.30;0.30;;;0.80;99.90;;;;;;5059385;23;20040;-74
2023/04/28 00:47:08;;;;;;;0.10;0.10;;;0.90;99.90;;;;;;5034879;28;20033;-74
2023/04/28 00:49:34;;;;;;;0.25;0.25;;;0.90;99.90;;;;;;5035028;28;20028;-74
2023/04/28 00:52:04;;;;;;;0.30;0.30;;;0.90;99.90;;;;;;5034950;28;20018;-74
2023/04/28 00:54:29;;;;;;;0.20;0.20;;;1.00;99.90;;;;;;5017599;28;20488;-74
2023/04/28 00:56:56;;;;;;;0.20;0.20;;;1.00;99.90;;;;;;5035388;28;20037;-74
2023/04/28 00:59:21;;;;;;;0.30;0.30;;;1.00;99.90;;;;;;5034958;28;20037;-74
2023/04/28 01:01:48;;;;;;;0.30;0.30;;;1.00;99.90;;;;;;5034709;28;20025;-74
2023/04/28 01:04:18;;;;;;;0.20;0.20;;;1.10;99.90;;;;;;5035181;28;20025;-74
2023/04/28 01:06:45;;;;;;;0.30;0.30;;;1.20;99.90;;;;;;5017375;28;20119;-74
2023/04/28 01:09:11;;;;;;;0.20;0.20;;;1.20;99.90;;;;;;5035122;28;20034;-74
2023/04/28 01:11:40;;;;;;;0.30;0.30;;;1.20;99.90;;;;;;5034866;28;20021;-74
2023/04/28 01:14:08;;;;;;;0.30;0.30;;;1.20;99.90;;;;;;5034216;28;20029;-74
2023/04/28 01:16:34;;;;;;;0.30;0.30;;;1.20;99.90;;;;;;5034229;28;20391;-74
2023/04/28 01:19:00;;;;;;;0.20;0.20;;;1.10;99.90;;;;;;5034946;28;20056;-74
2023/04/28 01:21:27;;;;;;;0.30;0.30;;;1.10;99.90;;;;;;5034920;28;20061;-74
2023/04/28 01:23:54;;;;;;;0.20;0.20;;;1.10;99.90;;;;;;5034980;28;20048;-74
2023/04/28 01:26:22;;;;;;;0.20;0.20;;;1.20;99.90;;;;;;5034453;28;20028;-74
2023/04/28 01:28:48;;;;;;;0.10;0.10;;;1.20;99.90;;;;;;5034274;28;20434;-74
2023/04/28 01:31:13;;;;;;;0.20;0.20;;;1.10;99.90;;;;;;5035082;28;20096;-74
2023/04/28 01:33:39;;;;;;;0.22;0.22;;;1.10;99.90;;;;;;5017295;28;20057;-74
2023/04/28 01:36:07;;;;;;;0.20;0.20;;;1.10;99.90;;;;;;5038096;28;20061;-74
2023/04/28 01:38:33;;;;;;;0.20;0.20;;;1.10;99.90;;;;;;5037716;28;20035;-74
2023/04/28 01:40:58;;;;;;;0.25;0.25;;;1.10;99.90;;;;;;5037630;28;20096;-74
2023/04/28 01:43:24;;;;;;;0.20;0.20;;;1.20;99.90;;;;;;5038159;28;20053;-74
2023/04/28 01:45:50;;;;;;;0.22;0.22;;;1.20;99.90;;;;;;5065249;23;20045;-75
2023/04/28 01:48:16;;;;;;;0.28;0.28;;;1.20;99.90;;;;;;5056997;28;20017;-75
2023/04/28 01:50:44;;;;;;;0.20;0.20;;;1.20;99.90;;;;;;5057619;28;20035;-74
2023/04/28 01:53:09;;;;;;;0.25;0.25;;;1.20;99.90;;;;;;5058151;28;20471;-74
2023/04/28 01:55:35;;;;;;;0.30;0.30;;;1.20;99.90;;;;;;5058420;28;20036;-74
2023/04/28 01:58:00;;;;;;;0.28;0.28;;;1.20;99.90;;;;;;5042152;28;20033;-75
2023/04/28 02:00:26;;;;;;;0.30;0.30;;;1.10;99.90;;;;;;5047437;28;20029;-75
2023/04/28 02:02:51;;;;;;;0.30;0.30;;;1.20;99.90;;;;;;5055946;28;20172;-75
2023/04/28 02:05:17;;;;;;;0.20;0.20;;;1.20;99.90;;;;;;5058133;28;20068;-75
2023/04/28 02:07:42;;;;;;;0.20;0.20;;;1.20;99.90;;;;;;5039977;28;20030;-74
2023/04/28 02:10:11;;;;;;;0.30;0.30;;;1.30;99.90;;;;;;5017010;28;20395;-75
2023/04/28 02:12:37;;;;;;;0.28;0.28;;;1.20;99.90;;;;;;5016828;28;20410;-75
2023/04/28 02:15:03;;;;;;;0.20;0.20;;;1.30;99.90;;;;;;5018088;28;20022;-75
2023/04/28 02:17:29;;;;;;;0.30;0.30;;;1.30;99.90;;;;;;5018670;28;20080;-75
2023/04/28 02:19:56;;;;;;;0.20;0.20;;;1.30;99.90;;;;;;5018438;28;20018;-74
2023/04/28 02:22:22;;;;;;;0.20;0.20;;;1.30;99.90;;;;;;5018159;28;20026;-75
2023/04/28 02:24:47;;;;;;;0.28;0.28;;;1.30;99.90;;;;;;5017841;28;20026;-75
2023/04/28 02:27:13;;;;;;;0.20;0.20;;;1.30;99.90;;;;;;5016166;28;20399;-75
2023/04/28 02:29:39;;;;;;;0.20;0.20;;;1.40;99.90;;;;;;5018424;28;20441;-75
2023/04/28 02:32:07;;;;;;;0.30;0.30;;;1.40;99.90;;;;;;5018035;28;20053;-75
2023/04/28 02:34:38;;;;;;;0.20;0.20;;;1.40;99.90;;;;;;5017220;28;20045;-74
2023/04/28 02:37:06;;;;;;;0.30;0.30;;;1.30;99.90;;;;;;5017496;28;20032;-75
2023/04/28 02:39:32;;;;;;;0.20;0.20;;;1.50;99.90;;;;;;5016633;28;20022;-75
2023/04/28 02:41:57;;;;;;;0.20;0.20;;;1.30;99.90;;;;;;5021090;28;20532;-74
2023/04/28 02:44:23;;;;;;;0.20;0.20;;;1.30;99.90;;;;;;5036415;28;20025;-74
2023/04/28 02:46:49;;;;;;;0.20;0.20;;;1.20;99.90;;;;;;5036632;28;20029;-74
2023/04/28 02:49:15;;;;;;;0.20;0.20;;;1.20;99.90;;;;;;5037079;28;20021;-75
2023/04/28 02:51:40;;;;;;;0.30;0.30;;;1.20;99.90;;;;;;5037652;28;20029;-74
2023/04/28 02:54:06;;;;;;;0.20;0.20;;;1.10;99.90;;;;;;5037519;28;20033;-74
2023/04/28 02:56:32;;;;;;;0.20;0.20;;;1.10;99.90;;;;;;5036858;28;20041;-75
2023/04/28 02:58:57;;;;;;;0.30;0.30;;;1.10;99.90;;;;;;5035100;28;20116;-75
2023/04/28 03:01:23;;;;;;;0.20;0.20;;;1.00;99.90;;;;;;5037305;28;20049;-75
2023/04/28 03:03:49;;;;;;;0.10;0.10;;;1.00;99.90;;;;;;5053911;28;20032;-74
2023/04/28 03:06:17;;;;;;;0.20;0.20;;;0.90;99.90;;;;;;5056623;28;20025;-74
2023/04/28 03:08:43;;;;;;;0.30;0.30;;;0.90;99.90;;;;;;5056638;28;20486;-75
2023/04/28 03:11:08;;;;;;;0.22;0.22;;;0.90;99.90;;;;;;5056397;28;20032;-74
2023/04/28 03:13:35;;;;;;;0.20;0.20;;;0.90;99.90;;;;;;5057029;28;20092;-75
2023/04/28 03:16:00;;;;;;;0.20;0.20;;;0.90;99.90;;;;;;5056813;28;20047;-75
2023/04/28 03:18:26;;;;;;;0.20;0.20;;;0.90;99.90;;;;;;5056901;28;20021;-74
2023/04/28 03:20:51;;;;;;;0.20;0.20;;;0.90;99.90;;;;;;5054590;28;20501;-74
2023/04/28 03:23:17;;;;;;;0.20;0.20;;;0.90;99.90;;;;;;5055441;28;20024;-75
2023/04/28 03:25:42;;;;;;;0.20;0.20;;;0.90;99.90;;;;;;5056816;28;20028;-75
2023/04/28 03:28:09;;;;;;;0.30;0.30;;;0.80;99.90;;;;;;5056658;28;20036;-75
2023/04/28 03:30:35;;;;;;;0.20;0.20;;;0.80;99.90;;;;;;5056015;28;20021;-74
2023/04/28 03:33:00;;;;;;;0.30;0.30;;;0.80;99.90;;;;;;5056335;28;20025;-74
2023/04/28 03:35:26;;;;;;;0.13;0.13;;;0.70;99.90;;;;;;5055828;28;20401;-74
2023/04/28 03:37:52;;;;;;;0.20;0.20;;;0.60;99.90;;;;;;5056731;28;20509;-74
2023/04/28 03:40:18;;;;;;;0.20;0.20;;;0.60;99.90;;;;;;5055960;28;20021;-74
2023/04/28 03:42:46;;;;;;;0.20;0.20;;;0.60;99.90;;;;;;5040791;28;20501;-74
2023/04/28 03:45:11;;;;;;;0.20;0.20;;;0.60;99.90;;;;;;5035790;28;20030;-74
2023/04/28 03:47:37;;;;;;;0.20;0.20;;;0.70;99.90;;;;;;5036327;28;20077;-74
2023/04/28 03:50:02;;;;;;;0.20;0.20;;;0.70;99.90;;;;;;5036393;28;20032;-75
2023/04/28 03:52:28;;;;;;;0.22;0.22;;;0.70;99.90;;;;;;5035827;28;20025;-75
2023/04/28 03:54:53;;;;;;;0.25;0.25;;;0.70;99.90;;;;;;5036063;28;20025;-75
2023/04/28 03:57:19;;;;;;;0.20;0.20;;;0.70;99.90;;;;;;5034909;28;20487;-74
2023/04/28 03:59:45;;;;;;;0.22;0.22;;;0.70;99.90;;;;;;5036397;28;20084;-74
2023/04/28 04:02:10;;;;;;;0.20;0.20;;;0.70;99.90;;;;;;5038434;28;20095;-75
2023/04/28 04:04:36;;;;;;;0.20;0.20;;;0.70;99.90;;;;;;5055465;28;20029;-75
2023/04/28 04:07:03;;;;;;;0.20;0.20;;;0.70;99.90;;;;;;5054102;28;20031;-74
2023/04/28 04:09:28;;;;;;;0.25;0.25;;;0.70;99.90;;;;;;5052025;28;20047;-75
2023/04/28 04:11:54;;;;;;;0.20;0.20;;;0.80;99.90;;;;;;5036165;28;20100;-75
2023/04/28 04:14:22;;;;;;;0.30;0.30;;;0.80;99.90;;;;;;5034196;28;20021;-74
2023/04/28 04:16:48;;;;;;;0.20;0.20;;;0.80;99.90;;;;;;5035325;28;20033;-75
2023/04/28 04:19:13;;;;;;;0.20;0.20;;;0.90;99.90;;;;;;5018383;28;20030;-74
2023/04/28 04:21:39;;;;;;;0.20;0.20;;;0.90;99.90;;;;;;5016308;28;20052;-74
2023/04/28 04:24:05;;;;;;;0.20;0.20;;;0.90;99.90;;;;;;5016199;28;20026;-75
2023/04/28 04:26:31;;;;;;;0.20;0.20;;;0.90;99.90;;;;;;5015135;28;20025;-75
2023/04/28 04:28:56;;;;;;;0.20;0.20;;;1.00;99.90;;;;;;5015810;28;20108;-75
2023/04/28 04:31:22;;;;;;;0.20;0.20;;;1.00;99.90;;;;;;5015531;28;20037;-75
2023/04/28 04:33:48;;;;;;;0.30;0.30;;;1.00;99.90;;;;;;5018715;28;20049;-75
2023/04/28 04:36:15;;;;;;;0.20;0.20;;;1.00;99.90;;;;;;5035270;28;20025;-74
2023/04/28 04:38:41;;;;;;;0.17;0.17;;;1.00;99.90;;;;;;5034996;28;20032;-75
2023/04/28 04:41:06;;;;;;;0.20;0.20;;;1.10;99.90;;;;;;5035809;28;20450;-75
2023/04/28 04:43:32;;;;;;;0.20;0.20;;;1.10;99.90;;;;;;5034254;28;20402;-74
2023/04/28 04:45:58;;;;;;;0.20;0.20;;;1.10;99.90;;;;;;5044767;28;20033;-75
2023/04/28 04:48:24;;;;;;;0.20;0.20;;;1.10;99.90;;;;;;5055048;28;20100;-75
2023/04/28 04:50:49;;;;;;;0.20;0.20;;;1.10;99.90;;;;;;5055608;28;20171;-75
2023/04/28 04:53:15;;;;;;;0.20;0.20;;;1.10;99.90;;;;;;5055794;28;20025;-75
2023/04/28 04:55:40;;;;;;;0.20;0.20;;;1.10;99.90;;;;;;5054915;28;20040;-75
2023/04/28 04:58:06;;;;;;;0.30;0.30;;;1.20;99.90;;;;;;5054552;28;20398;-75
2023/04/28 05:00:32;;;;;;;0.28;0.28;;;1.20;99.90;;;;;;5053972;28;20041;-75
2023/04/28 05:02:58;;;;;;;0.30;0.30;;;1.20;99.90;;;;;;5055326;28;20033;-75
2023/04/28 05:05:24;;;;;;;0.20;0.20;;;1.20;99.90;;;;;;5054791;28;20029;-75
2023/04/28 05:07:50;;;;;;;0.20;0.20;;;1.30;99.90;;;;;;5015945;28;20049;-75
2023/04/28 05:10:18;;;;;;;0.20;0.20;;;1.30;99.90;;;;;;5017954;28;20026;-75
2023/04/28 05:12:43;;;;;;;0.20;0.20;;;1.30;99.90;;;;;;5019204;28;20022;-75
2023/04/28 05:15:09;;;;;;;0.20;0.20;;;1.30;99.90;;;;;;5019679;28;20037;-75
2023/04/28 05:17:35;;;;;;;0.20;0.20;;;1.40;99.90;;;;;;5028016;28;20032;-75
2023/04/28 05:20:01;;;;;;;0.20;0.20;;;1.50;99.90;;;;;;5059276;28;20029;-75
2023/04/28 05:22:26;;;;;;;0.20;0.20;;;1.60;99.90;;;;;;5058269;28;20480;-75
2023/04/28 05:24:52;;;;;;;0.30;0.30;;;1.80;99.90;;;;;;5059248;28;20446;-75
2023/04/28 05:27:18;;;;;;;0.20;0.20;;;2.00;99.90;;;;;;5058701;28;20017;-75
2023/04/28 05:29:43;;;;;;;0.20;0.20;;;2.10;99.90;;;;;;5058965;28;20467;-75
2023/04/28 05:32:09;;;;;;;0.20;0.20;;;2.30;99.90;;;;;;5058443;28;20478;-75
2023/04/28 05:34:35;;;;;;;0.20;0.20;;;2.50;99.90;;;;;;5058330;28;20546;-75
2023/04/28 05:37:00;;;;;;;0.20;0.20;;;2.60;99.90;;;;;;5058966;28;20025;-75
2023/04/28 05:39:26;;;;;;;0.20;0.20;;;2.80;99.90;;;;;;5057049;28;20109;-75
2023/04/28 05:41:51;;;;;;;0.20;0.20;;;3.00;99.90;;;;;;5058319;28;20029;-75
2023/04/28 05:44:17;;;;;;;0.20;0.20;;;3.10;99.90;;;;;;5058124;28;20037;-75
2023/04/28 05:46:42;;;;;;;0.10;0.10;;;3.30;99.90;;;;;;5058549;28;20044;-75
2023/04/28 05:49:09;;;;;;;0.22;0.22;;;3.50;99.90;;;;;;5058512;28;20025;-75
2023/04/28 05:51:35;;;;;;;0.20;0.20;;;3.70;99.90;;;;;;5058349;28;20028;-75
2023/04/28 05:54:00;;;;;;;0.20;0.20;;;3.90;99.90;;;;;;5057467;28;20029;-75
2023/04/28 05:56:26;;;;;;;0.22;0.22;;;4.10;99.90;;;;;;5058005;28;20028;-75
2023/04/28 05:58:52;;;;;;;0.20;0.20;;;4.30;99.90;;;;;;5041463;28;20035;-75
2023/04/28 06:01:17;;;;;;;0.20;0.20;;;4.50;99.90;;;;;;5038165;28;20017;-75
2023/04/28 06:03:44;;;;;;;0.22;0.22;;;4.80;99.90;;;;;;5038007;28;20021;-75
2023/04/28 06:06:10;;;;;;;0.20;0.20;;;4.90;99.90;;;;;;5037482;28;20021;-75
2023/04/28 06:08:36;;;;;;;0.13;0.13;;;5.10;99.90;;;;;;5037467;28;20014;-75
2023/04/28 06:11:02;;;;;;;0.20;0.20;;;5.30;99.90;;;;;;5038377;28;20025;-75
2023/04/28 06:13:28;;;;;;;0.20;0.20;;;5.50;99.90;;;;;;5055604;28;20100;-75
2023/04/28 06:15:54;;;;;;;0.10;0.10;;;5.70;99.90;;;;;;5056017;28;20060;-75
2023/04/28 06:18:19;;;;;;;0.10;0.10;;;5.80;99.90;;;;;;5056293;28;20494;-76
2023/04/28 06:20:45;;;;;;;0.20;0.20;;;5.90;99.90;;;;;;5057583;28;20025;-75
2023/04/28 06:23:10;;;;;;;0.20;0.20;;;6.10;99.90;;;;;;5043542;28;20023;-75
2023/04/28 06:25:39;;;;;;;0.10;0.10;;;6.10;99.90;;;;;;5037179;28;20399;-75
2023/04/28 06:28:06;;;;;;;0.20;0.20;;;6.30;99.90;;;;;;5037304;28;20021;-75
2023/04/28 06:30:31;;;;;;;0.20;0.20;;;6.30;99.90;;;;;;5037856;28;20017;-76
2023/04/28 06:32:57;;;;;;;0.10;0.10;;;6.50;99.90;;;;;;5038212;28;20018;-75
2023/04/28 06:35:23;;;;;;;0.17;0.17;;;6.70;99.90;;;;;;5037211;28;20391;-76
2023/04/28 06:37:48;;;;;;;0.20;0.20;;;7.00;99.90;;;;;;5035879;28;20116;-76
2023/04/28 06:40:14;;;;;;;0.20;0.20;;;7.20;99.90;;;;;;5037104;28;20025;-76
2023/04/28 06:42:40;;;;;;;0.20;0.20;;;7.40;99.90;;;;;;5036658;28;20551;-76
2023/04/28 06:45:06;;;;;;;0.10;0.10;;;7.60;99.90;;;;;;5037020;28;20089;-75
2023/04/28 06:47:31;;;;;;;0.17;0.17;;;7.80;99.90;;;;;;5037313;28;20103;-76
2023/04/28 06:49:57;;;;;;;0.10;0.10;;;7.90;99.90;;;;;;5037012;28;20026;-76
2023/04/28 06:52:22;;;;;;;0.20;0.20;;;8.10;99.90;;;;;;5036712;28;20588;-76
2023/04/28 06:54:49;;;;;;;0.20;0.20;;;8.20;99.90;;;;;;5037110;28;20100;-76
2023/04/28 06:57:19;;;;;;;0.10;0.10;;;8.40;99.90;;;;;;5037110;28;20407;-75
2023/04/28 06:59:45;;;;;;;0.20;0.20;;;8.60;99.90;;;;;;5037092;28;20061;-76
2023/04/28 07:02:13;;;;;;;0.20;0.20;;;8.80;99.90;;;;;;5036471;28;20429;-76
2023/04/28 07:04:39;;;;;;;0.20;0.20;;;9.00;99.90;;;;;;5035795;28;20033;-76
2023/04/28 07:07:07;;;;;;;0.20;0.20;;;9.20;99.90;;;;;;5036988;28;20028;-76
2023/04/28 07:09:33;;;;;;;0.20;0.20;;;9.20;99.90;;;;;;5037228;28;20021;-76
2023/04/28 07:11:59;;;;;;;0.20;0.20;;;9.40;99.90;;;;;;5022028;28;20035;-75
2023/04/28 07:14:24;;;;;;;0.20;0.20;;;9.50;99.90;;;;;;5056233;28;20393;-77
2023/04/28 07:16:50;;;;;;;0.20;0.20;;;9.60;99.90;;;;;;5056949;28;20025;-75
2023/04/28 07:19:15;;;;;;;0.20;0.20;;;9.80;99.90;;;;;;5057285;28;20079;-76
2023/04/28 07:21:41;;;;;;;0.20;0.20;;;10.00;99.90;;;;;;5056484;28;20028;-76
2023/04/28 07:24:06;;;;;;;0.20;0.20;;;10.10;99.90;;;;;;5056294;28;20052;-76
2023/04/28 07:26:32;;;;;;;0.20;0.20;;;10.20;99.90;;;;;;5054740;28;20045;-76
2023/04/28 07:28:58;;;;;;;0.10;0.10;;;10.10;99.90;;;;;;5056873;28;20458;-76
2023/04/28 07:31:24;;;;;;;0.20;0.20;;;10.30;99.90;;;;;;5056154;28;20017;-76
2023/04/28 07:33:50;;;;;;;0.30;0.30;;;10.60;99.90;;;;;;5054927;28;20074;-76
2023/04/28 07:36:16;;;;;;;0.20;0.20;;;10.90;99.90;;;;;;5054639;28;20429;-73
2023/04/28 07:38:41;;;;;;;0.10;0.10;;;11.10;99.90;;;;;;5056356;28;20032;-73
2023/04/28 07:41:07;;;;;;;0.20;0.20;;;11.20;99.90;;;;;;5056458;28;20021;-73
2023/04/28 07:43:32;;;;;;;0.10;0.10;;;11.20;99.90;;;;;;5055958;28;20028;-74
2023/04/28 07:45:58;;;;;;;0.20;0.20;;;11.30;99.90;;;;;;5075661;23;20134;-74
2023/04/28 07:48:23;;;;;;;0.20;0.20;;;11.30;99.90;;;;;;5051547;28;20053;-73
2023/04/28 07:50:49;;;;;;;0.20;0.20;;;11.40;99.90;;;;;;5052213;28;20025;-75
2023/04/28 07:53:14;;;;;;;0.17;0.17;;;11.40;99.90;;;;;;5052158;28;20026;-75
2023/04/28 07:55:44;;;;;;;0.20;0.20;;;11.40;99.90;;;;;;5053134;28;20044;-75
2023/04/28 07:58:10;;;;;;;0.20;0.20;;;11.50;99.90;;;;;;5053471;28;20025;-74
2023/04/28 08:00:36;;;;;;;0.20;0.20;;;11.60;99.90;;;;;;5052655;28;20036;-73
2023/04/28 08:03:02;;;;;;;0.20;0.20;;;11.70;99.90;;;;;;5053207;28;20055;-74
2023/04/28 08:05:28;;;;;;;0.20;0.20;;;11.80;99.90;;;;;;5052749;28;20086;-74
2023/04/28 08:07:53;;;;;;;0.20;0.20;;;11.80;99.90;;;;;;5052354;28;20021;-74
2023/04/28 08:10:19;;;;;;;0.20;0.20;;;11.70;99.90;;;;;;5052987;28;20021;-74
2023/04/28 08:12:45;;;;;;;0.17;0.17;;;11.70;99.90;;;;;;5052973;28;20028;-74
2023/04/28 08:15:11;;;;;;;0.10;0.10;;;11.90;99.90;;;;;;5053447;28;20111;-74
2023/04/28 08:17:36;;;;;;;0.20;0.20;;;12.00;99.90;;;;;;5052425;28;20079;-75
2023/04/28 08:20:02;;;;;;;0.10;0.10;;;12.20;99.90;;;;;;5051570;28;20033;-74
2023/04/28 08:22:28;;;;;;;0.20;0.20;;;12.50;99.90;;;;;;5052777;28;20029;-75
2023/04/28 08:24:53;;;;;;;0.20;0.20;;;12.70;99.90;;;;;;5052811;28;20169;-75
2023/04/28 08:27:19;;;;;;;0.20;0.20;;;12.90;99.90;;;;;;5052699;28;20049;-74
2023/04/28 08:29:44;;;;;;;0.20;0.20;;;13.00;99.90;;;;;;5052826;28;20044;-75
2023/04/28 08:32:10;;;;;;;0.20;0.20;;;13.30;99.90;;;;;;5051778;28;20021;-75
2023/04/28 08:34:36;;;;;;;0.20;0.20;;;13.40;99.90;;;;;;5052865;28;20502;-75
2023/04/28 08:37:02;;;;;;;0.20;0.20;;;13.40;99.90;;;;;;5051997;28;20047;-75
2023/04/28 08:39:28;;;;;;;0.20;0.20;;;13.60;99.90;;;;;;5052810;28;20021;-74
2023/04/28 08:41:53;;;;;;;0.10;0.10;;;13.60;99.90;;;;;;5052810;28;20021;-75
2023/04/28 08:44:19;;;;;;;0.20;0.20;;;13.70;99.90;;;;;;5055444;28;20054;-75
2023/04/28 08:46:46;;;;;;;0.20;0.20;;;13.80;99.90;;;;;;5056494;28;20037;-75
2023/04/28 08:49:19;;;;;;;0.20;0.20;;;13.90;99.90;;;;;;5055385;28;20108;-75
2023/04/28 08:51:51;;;;;;;0.10;0.10;;;14.00;99.90;;;;;;5057269;28;20029;-75
2023/04/28 08:54:17;;;;;;;0.15;0.15;;;14.10;99.90;;;;;;5056557;28;20044;-75
2023/04/28 08:56:44;;;;;;;0.20;0.20;;;14.40;99.90;;;;;;5056626;28;20390;-74
2023/04/28 08:59:11;;;;;;;0.10;0.10;;;14.30;99.90;;;;;;5056228;28;20071;-74
2023/04/28 09:01:37;;;;;;;0.22;0.22;;;14.60;99.90;;;;;;5056818;28;20077;-76
2023/04/28 09:04:03;;;;;;;0.10;0.10;;;14.70;99.90;;;;;;5056780;28;20506;-75
2023/04/28 09:06:34;;;;;;;0.20;0.20;;;14.90;99.90;;;;;;5055224;28;20103;-75
2023/04/28 09:09:19;;;;;;;0.20;0.20;;;15.10;99.90;;;;;;5056372;28;20086;-75
2023/04/28 09:11:59;;;;;;;0.20;0.20;;;15.30;99.90;;;;;;5056637;28;20029;-74
2023/04/28 09:14:29;;;;;;;0.10;0.10;;;15.40;99.90;;;;;;5056138;28;20017;-74
2023/04/28 09:16:55;;;;;;;0.10;0.10;;;15.50;99.90;;;;;;5050057;28;20486;-74
2023/04/28 09:19:21;;;;;;;0.13;0.13;;;15.60;99.90;;;;;;5036269;28;20100;-75
2023/04/28 09:21:53;;;;;;;0.20;0.20;;;15.50;99.90;;;;;;5036501;28;20029;-74
2023/04/28 09:24:29;;;;;;;0.20;0.20;;;15.20;99.90;;;;;;5036284;28;20100;-74
2023/04/28 09:26:55;;;;;;;0.10;0.10;;;15.20;99.90;;;;;;5050651;28;20048;-75
2023/04/28 09:29:20;;;;;;;0.20;0.20;;;15.20;99.90;;;;;;5055922;28;20021;-74
2023/04/28 09:31:46;;;;;;;0.20;0.20;;;15.30;99.90;;;;;;5056173;28;20078;-74
2023/04/28 09:34:12;;;;;;;0.20;0.20;;;15.30;99.90;;;;;;5056095;28;20032;-74
2023/04/28 09:36:37;;;;;;;0.20;0.20;;;15.20;99.90;;;;;;5055944;28;20116;-73
2023/04/28 09:39:03;;;;;;;0.10;0.10;;;15.20;99.90;;;;;;5055994;28;20033;-74
2023/04/28 09:41:39;;;;;;;0.20;0.20;;;15.20;99.90;;;;;;5054816;28;20067;-74
2023/04/28 09:44:16;;;;;;;0.17;0.17;;;15.30;99.90;;;;;;5055778;28;20025;-74
2023/04/28 09:46:43;;;;;;;0.20;0.20;;;15.20;99.90;;;;;;5055365;28;20029;-73
2023/04/28 09:49:09;;;;;;;0.20;0.20;;;15.30;99.90;;;;;;5056028;28;20018;-74
2023/04/28 09:51:35;;;;;;;0.20;0.20;;;15.20;99.90;;;;;;5055158;28;20104;-74
2023/04/28 09:54:02;;;;;;;0.17;0.17;;;15.30;99.90;;;;;;5055308;28;20076;-74
2023/04/28 09:56:29;;;;;;;0.10;0.10;;;15.10;99.90;;;;;;5054533;28;20025;-74
2023/04/28 09:58:58;;;;;;;0.10;0.10;;;15.10;99.90;;;;;;5054164;28;20033;-74
2023/04/28 10:01:31;;;;;;;0.20;0.20;;;15.40;99.90;;;;;;5054922;28;20025;-75
2023/04/28 10:03:58;;;;;;;0.20;0.20;;;15.70;99.90;;;;;;5055707;28;20060;-75
2023/04/28 10:06:24;;;;;;;0.20;0.20;;;15.90;99.90;;;;;;5055312;28;20029;-74
2023/04/28 10:08:50;;;;;;;0.15;0.15;;;16.00;99.90;;;;;;5036483;28;20053;-75
2023/04/28 10:11:16;;;;;;;0.10;0.10;;;16.20;99.90;;;;;;5035153;28;20044;-75
2023/04/28 10:13:43;;;;;;;0.10;0.10;;;16.60;99.90;;;;;;5051106;28;20110;-75
2023/04/28 10:16:10;;;;;;;0.10;0.10;;;16.90;99.90;;;;;;5055239;28;20021;-76
2023/04/28 10:18:36;;;;;;;0.10;0.10;;;17.10;99.90;;;;;;5054998;28;20020;-76
2023/04/28 10:21:04;;;;;;;0.20;0.20;;;17.20;99.90;;;;;;5055009;28;20056;-75
2023/04/28 10:23:42;;;;;;;0.20;0.20;;;17.20;99.90;;;;;;5055044;28;20374;-74
2023/04/28 10:26:11;;;;;;;0.20;0.20;;;17.30;99.90;;;;;;5054474;28;20025;-74
2023/04/28 10:28:43;;;;;;;0.10;0.10;;;16.80;99.90;;;;;;5055090;28;20021;-74
2023/04/28 10:31:14;;;;;;;0.20;0.20;;;16.40;99.90;;;;;;5035197;28;20021;-74
2023/04/28 10:33:40;;;;;;;0.10;0.10;;;16.00;99.90;;;;;;5035048;28;20057;-74
2023/04/28 10:36:07;;;;;;;0.20;0.20;;;16.00;99.90;;;;;;5034530;28;20096;-74
2023/04/28 10:38:33;;;;;;;0.20;0.20;;;16.00;99.90;;;;;;5034648;28;20022;-75
2023/04/28 10:41:01;;;;;;;0.10;0.10;;;16.00;99.90;;;;;;5041801;28;20556;-74
2023/04/28 10:43:36;;;;;;;0.20;0.20;;;16.30;99.90;;;;;;5054509;28;20056;-75
2023/04/28 10:46:07;;;;;;;0.20;0.20;;;16.40;99.90;;;;;;5054461;28;20037;-75
2023/04/28 10:48:32;;;;;;;0.13;0.13;;;16.50;99.90;;;;;;5053626;28;20490;-75
2023/04/28 10:51:04;;;;;;;0.13;0.13;;;16.60;99.90;;;;;;5054234;28;20025;-75
2023/04/28 10:53:43;;;;;;;0.10;0.10;;;16.50;99.90;;;;;;5054971;28;20502;-75
2023/04/28 10:56:18;;;;;;;0.10;0.10;;;16.60;99.90;;;;;;5053944;28;20029;-75
2023/04/28 10:58:45;;;;;;;0.13;0.13;;;16.50;99.90;;;;;;5054735;28;20017;-75
2023/04/28 11:01:20;;;;;;;0.10;0.10;;;16.50;99.90;;;;;;5054376;28;20113;-74
2023/04/28 11:04:18;;;;;;;0.10;0.10;;;16.80;99.90;;;;;;5054713;28;20009;-75
2023/04/28 11:07:12;;;;;;;0.15;0.15;;;17.30;99.90;;;;;;5050165;28;20083;-75
2023/04/28 11:09:38;;;;;;;0.10;0.10;;;17.50;99.90;;;;;;5051195;28;20032;-75
2023/04/28 11:12:09;;;;;;;0.10;0.10;;;17.80;99.90;;;;;;5054429;28;20039;-75
2023/04/28 11:14:36;;;;;;;0.10;0.10;;;18.00;99.90;;;;;;5052955;28;20064;-75
2023/04/28 11:17:04;;;;;;;0.10;0.10;;;18.40;99.90;;;;;;5033418;28;20398;-75
2023/04/28 11:19:33;;;;;;;0.10;0.10;;;18.80;99.90;;;;;;5034292;28;20070;-74
2023/04/28 11:22:10;;;;;;;0.10;0.10;;;19.20;99.90;;;;;;5034077;28;20025;-75
2023/04/28 11:24:36;;;;;;;0.10;0.10;;;19.10;99.90;;;;;;5032987;28;20398;-74
2023/04/28 11:27:01;;;;;;;0.10;0.10;;;19.10;99.90;;;;;;5034607;28;20029;-75
2023/04/28 11:29:47;;;;;;;0.05;0.05;;;18.90;99.90;;;;;;5034358;28;20100;-75
2023/04/28 11:32:13;;;;;;;0.10;0.10;;;18.60;99.90;;;;;;5048296;28;20021;-75
2023/04/28 11:34:38;;;;;;;0.20;0.20;;;18.60;99.90;;;;;;5053835;28;20037;-75
2023/04/28 11:37:08;;;;;;;0.10;0.10;;;18.50;99.90;;;;;;5053210;28;20032;-75
2023/04/28 11:39:34;;;;;;;0.10;0.10;;;18.40;99.90;;;;;;5053974;28;20025;-75
2023/04/28 11:42:01;;;;;;;0.10;0.10;;;18.30;99.90;;;;;;5054032;28;20521;-74
2023/04/28 11:44:29;;;;;;;0.10;0.10;;;18.20;99.90;;;;;;5054115;28;20585;-75
2023/04/28 11:46:59;;;;;;;0.10;0.10;;;18.40;99.90;;;;;;5053416;28;20072;-73
2023/04/28 11:49:29;;;;;;;0.10;0.10;;;18.50;99.90;;;;;;5053694;28;20483;-73
2023/04/28 11:52:04;;;;;;;0.10;0.10;;;18.80;99.90;;;;;;5053884;28;20067;-73
2023/04/28 11:54:30;;;;;;;0.10;0.10;;;18.90;99.90;;;;;;5052660;28;20032;-73
2023/04/28 11:56:57;;;;;;;0.10;0.10;;;18.80;99.90;;;;;;5053852;28;20024;-73
2023/04/28 11:59:33;;;;;;;0.10;0.10;;;18.60;99.90;;;;;;5053180;28;20029;-73
2023/04/28 12:02:04;;;;;;;0.10;0.10;;;18.70;99.90;;;;;;5053978;28;20071;-73
2023/04/28 12:04:38;;;;;;;0.10;0.10;;;18.80;99.90;;;;;;5053453;28;20436;-73
2023/04/28 12:07:15;;;;;;;0.10;0.10;;;18.50;99.90;;;;;;5053135;28;20475;-73
2023/04/28 12:09:41;;;;;;;0.10;0.10;;;18.30;99.90;;;;;;5052283;28;20497;-73
2023/04/28 12:12:15;;;;;;;0.10;0.10;;;18.10;99.90;;;;;;5053452;28;20556;-73
2023/04/28 12:15:04;;;;;;;0.10;0.10;;;18.40;99.90;;;;;;5053313;28;20063;-73
2023/04/28 12:17:36;;;;;;;0.10;0.10;;;18.40;99.90;;;;;;5052895;28;20032;-74
2023/04/28 12:20:05;;;;;;;0.08;0.08;;;18.70;99.90;;;;;;5053236;28;20036;-73
2023/04/28 12:22:41;;;;;;;0.08;0.08;;;18.60;99.90;;;;;;5053669;28;20386;-74
2023/04/28 12:25:09;;;;;;;0.10;0.10;;;18.50;99.90;;;;;;5053155;28;20033;-73
2023/04/28 12:27:38;;;;;;;0.10;0.10;;;18.50;99.90;;;;;;5052604;28;20128;-72
2023/04/28 12:30:23;;;;;;;0.15;0.15;;;18.70;99.90;;;;;;5053077;28;20017;-73
2023/04/28 12:32:49;;;;;;;0.10;0.10;;;18.30;99.90;;;;;;5053203;28;20017;-73
2023/04/28 12:35:15;;;;;;;0.10;0.10;;;18.20;99.90;;;;;;5052936;28;20025;-73
2023/04/28 12:37:43;;;;;;;0.10;0.10;;;18.30;99.90;;;;;;5052390;28;20366;-73
2023/04/28 12:40:09;;;;;;;0.10;0.10;;;18.20;99.90;;;;;;5052974;28;20103;-73
2023/04/28 12:42:36;;;;;;;0.05;0.05;;;18.10;99.90;;;;;;5051598;28;20116;-73
2023/04/28 12:45:01;;;;;;;0.05;0.05;;;18.20;99.90;;;;;;5052322;28;20025;-73
2023/04/28 12:47:27;;;;;;;0.10;0.10;;;18.00;99.90;;;;;;5052725;28;20032;-73
2023/04/28 12:49:53;;;;;;;0.10;0.10;;;17.80;99.90;;;;;;5052991;28;20107;-73
2023/04/28 12:52:19;;;;;;;0.10;0.10;;;17.80;99.90;;;;;;5052803;28;20106;-73